Time;durP1;ratioP1;P1;durP2;ratioP2;P2;SDS_P1;SDS_P2;PMS_P1;PMS_P2;Temp;Humidity;BMP_temperature;BMP_pressure;BME280_temperature;BME280_humidity;BME280_pressure;Samples;Min_cycle;Max_cycle;Signal;HPM_P1;HPM_P2
2022/01/07 00:00:25;;;;;;;68.50;9.65;;;28.30;70.90;;;;;;5058603;28;20091;-52
2022/01/07 00:02:56;;;;;;;41.88;8.18;;;28.30;70.70;;;;;;5065184;28;20088;-48
2022/01/07 00:05:25;;;;;;;103.30;10.38;;;28.30;70.60;;;;;;5062920;28;20309;-46
2022/01/07 00:07:52;;;;;;;52.88;7.85;;;28.20;70.40;;;;;;5057532;28;20021;-46
2022/01/07 00:10:21;;;;;;;32.97;6.93;;;28.20;70.70;;;;;;5039134;28;20051;-47
2022/01/07 00:12:49;;;;;;;33.15;6.80;;;28.20;70.70;;;;;;5058757;28;20289;-44
2022/01/07 00:15:16;;;;;;;29.40;7.13;;;28.30;70.70;;;;;;5061306;28;20122;-53
2022/01/07 00:17:46;;;;;;;26.35;6.65;;;28.20;70.50;;;;;;5062922;28;20021;-45
2022/01/07 00:20:14;;;;;;;30.65;7.97;;;28.30;70.40;;;;;;5063023;28;20029;-51
2022/01/07 00:22:43;;;;;;;23.30;6.57;;;28.30;70.80;;;;;;5063267;28;20048;-51
2022/01/07 00:25:12;;;;;;;25.67;6.18;;;28.30;70.10;;;;;;5064322;28;20021;-48
2022/01/07 00:27:40;;;;;;;19.73;6.22;;;28.30;69.90;;;;;;5064924;28;20044;-53
2022/01/07 00:30:09;;;;;;;24.08;6.85;;;28.30;69.80;;;;;;5066107;28;20029;-54
2022/01/07 00:32:36;;;;;;;18.80;5.95;;;28.30;69.80;;;;;;5066675;28;20105;-50
2022/01/07 00:35:05;;;;;;;19.02;5.72;;;28.40;69.90;;;;;;5063452;28;20213;-51
2022/01/07 00:37:31;;;;;;;40.65;6.50;;;28.30;69.70;;;;;;5062340;28;20318;-47
2022/01/07 00:39:58;;;;;;;24.42;6.45;;;28.30;69.80;;;;;;5062410;28;20084;-50
2022/01/07 00:42:25;;;;;;;20.23;5.43;;;28.40;69.80;;;;;;5063957;28;20209;-48
2022/01/07 00:44:52;;;;;;;23.60;6.35;;;28.30;69.60;;;;;;5063480;28;20063;-53
2022/01/07 00:47:19;;;;;;;21.92;5.35;;;28.40;69.60;;;;;;5063678;28;20423;-48
2022/01/07 00:49:46;;;;;;;37.38;7.07;;;28.40;69.60;;;;;;5063744;28;20032;-44
2022/01/07 00:52:12;;;;;;;92.82;9.35;;;28.40;69.60;;;;;;5064706;28;20088;-51
2022/01/07 00:54:41;;;;;;;222.00;14.68;;;28.40;69.50;;;;;;5064223;28;20309;-50
2022/01/07 00:57:08;;;;;;;47.90;7.07;;;28.30;69.90;;;;;;5064477;28;20028;-44
2022/01/07 00:59:34;;;;;;;587.47;31.77;;;28.30;69.50;;;;;;5062589;28;20124;-43
2022/01/07 01:02:01;;;;;;;252.50;16.55;;;28.30;69.60;;;;;;5064268;28;20091;-47
2022/01/07 01:04:28;;;;;;;176.07;14.55;;;28.40;69.70;;;;;;5063571;28;20020;-45
2022/01/07 01:06:56;;;;;;;164.82;13.27;;;28.40;69.50;;;;;;5064473;28;20092;-47
2022/01/07 01:09:22;;;;;;;69.57;8.80;;;28.30;69.30;;;;;;5064309;28;20020;-54
2022/01/07 01:11:49;;;;;;;62.20;7.75;;;28.30;69.20;;;;;;5064419;28;20048;-52
2022/01/07 01:14:16;;;;;;;96.18;9.68;;;28.30;69.20;;;;;;5063836;28;20008;-44
2022/01/07 01:16:44;;;;;;;37.88;7.07;;;28.30;69.00;;;;;;5064167;28;20136;-50
2022/01/07 01:19:11;;;;;;;50.47;7.47;;;28.30;68.90;;;;;;5063824;28;20063;-49
2022/01/07 01:21:37;;;;;;;37.33;6.78;;;28.30;68.90;;;;;;5063631;28;20036;-47
2022/01/07 01:24:04;;;;;;;26.02;6.85;;;28.30;68.80;;;;;;5063760;28;20375;-43
2022/01/07 01:26:32;;;;;;;49.70;7.18;;;28.20;68.50;;;;;;5062721;28;20033;-46
2022/01/07 01:28:58;;;;;;;27.58;6.82;;;28.20;68.50;;;;;;5062282;28;20244;-47
2022/01/07 01:31:26;;;;;;;124.05;11.13;;;28.20;68.50;;;;;;5063661;28;20021;-54
2022/01/07 01:33:53;;;;;;;55.33;8.57;;;28.20;68.60;;;;;;5052223;28;20207;-50
2022/01/07 01:36:20;;;;;;;41.13;7.18;;;28.10;68.60;;;;;;5062126;28;20021;-51
2022/01/07 01:38:46;;;;;;;29.17;6.55;;;28.00;69.40;;;;;;5058384;28;20146;-52
2022/01/07 01:41:14;;;;;;;20.63;7.63;;;27.90;69.20;;;;;;5058303;28;20093;-45
2022/01/07 01:43:40;;;;;;;23.42;9.13;;;27.90;69.50;;;;;;5054151;28;20025;-45
2022/01/07 01:46:07;;;;;;;36.63;10.57;;;27.90;69.60;;;;;;5049869;28;20025;-52
2022/01/07 01:48:34;;;;;;;36.25;16.75;;;27.80;69.80;;;;;;5051592;28;20210;-51
2022/01/07 01:51:01;;;;;;;38.85;13.93;;;27.70;69.80;;;;;;5045848;28;20029;-48
2022/01/07 01:53:27;;;;;;;34.72;13.25;;;27.70;69.80;;;;;;5063701;28;20024;-42
2022/01/07 01:55:54;;;;;;;24.98;11.48;;;27.70;69.90;;;;;;5063956;28;20092;-42
2022/01/07 01:58:21;;;;;;;23.52;8.82;;;27.70;69.60;;;;;;5067442;28;20024;-43
2022/01/07 02:00:48;;;;;;;24.25;8.52;;;27.70;69.30;;;;;;5067746;28;20028;-50
2022/01/07 02:03:15;;;;;;;40.78;7.28;;;27.70;69.20;;;;;;5067705;28;20245;-46
2022/01/07 02:05:44;;;;;;;23.35;6.85;;;27.70;69.10;;;;;;5049826;28;20025;-43
2022/01/07 02:08:11;;;;;;;23.60;6.13;;;27.70;69.00;;;;;;5067519;28;20021;-43
2022/01/07 02:10:38;;;;;;;81.10;8.95;;;27.70;68.90;;;;;;5067631;28;20309;-46
2022/01/07 02:13:05;;;;;;;32.38;6.28;;;27.60;68.90;;;;;;5067339;28;20205;-45
2022/01/07 02:15:32;;;;;;;24.92;5.30;;;27.60;68.80;;;;;;5067478;28;20025;-52
2022/01/07 02:17:58;;;;;;;20.63;5.53;;;27.60;68.90;;;;;;5059203;28;20325;-44
2022/01/07 02:20:28;;;;;;;30.52;6.20;;;27.60;69.10;;;;;;5047048;28;20057;-52
2022/01/07 02:22:57;;;;;;;21.08;5.93;;;27.50;69.00;;;;;;5054725;28;20025;-44
2022/01/07 02:25:25;;;;;;;23.88;5.47;;;27.50;69.10;;;;;;5029529;28;20071;-46
2022/01/07 02:27:52;;;;;;;57.63;7.30;;;27.50;69.10;;;;;;5045986;28;20131;-47
2022/01/07 02:30:25;;;;;;;36.22;6.80;;;27.60;69.20;;;;;;5046550;28;20029;-44
2022/01/07 02:32:52;;;;;;;29.77;6.28;;;27.60;69.20;;;;;;5055013;28;20045;-45
2022/01/07 02:35:24;;;;;;;30.85;5.85;;;27.60;69.10;;;;;;5062466;28;20022;-46
2022/01/07 02:37:51;;;;;;;23.42;6.13;;;27.70;69.10;;;;;;5046959;28;20306;-45
2022/01/07 02:40:18;;;;;;;15.18;5.40;;;27.70;68.90;;;;;;5046899;28;20037;-48
2022/01/07 02:42:45;;;;;;;20.23;5.15;;;27.70;68.80;;;;;;5047285;28;20101;-50
2022/01/07 02:45:13;;;;;;;19.08;5.28;;;27.80;68.70;;;;;;5029261;28;20029;-50
2022/01/07 02:50:12;;;;;;;18.80;5.72;;;27.70;68.40;;;;;;5046816;28;20025;-56
2022/01/07 02:52:39;;;;;;;15.02;4.97;;;27.80;68.40;;;;;;5046889;28;20079;-46
2022/01/07 02:55:07;;;;;;;15.20;5.20;;;27.80;68.30;;;;;;5061980;28;20310;-49
2022/01/07 02:57:33;;;;;;;10.82;4.68;;;27.80;68.30;;;;;;5046821;28;20400;-53
2022/01/07 03:00:00;;;;;;;15.48;5.20;;;27.80;68.20;;;;;;5029180;28;20021;-48
2022/01/07 03:02:27;;;;;;;10.48;4.60;;;27.80;68.20;;;;;;5046587;28;20075;-45
2022/01/07 03:04:53;;;;;;;11.63;4.88;;;27.80;68.10;;;;;;5046293;28;20322;-51
2022/01/07 03:07:20;;;;;;;9.25;4.50;;;27.80;68.00;;;;;;5045810;28;20026;-49
2022/01/07 03:09:47;;;;;;;10.85;4.55;;;27.80;68.00;;;;;;5027836;28;20253;-56
2022/01/07 03:12:13;;;;;;;9.73;4.95;;;27.80;68.00;;;;;;5046913;28;20131;-49
2022/01/07 03:14:40;;;;;;;7.88;4.72;;;27.80;68.00;;;;;;5046426;28;20014;-46
2022/01/07 03:17:07;;;;;;;8.75;4.72;;;27.80;68.00;;;;;;5046105;28;20026;-46
2022/01/07 03:19:34;;;;;;;9.40;4.85;;;27.70;68.00;;;;;;5028505;28;20124;-58
2022/01/07 03:22:02;;;;;;;6.50;4.72;;;27.70;67.90;;;;;;5046789;28;20025;-51
2022/01/07 03:24:29;;;;;;;9.85;4.63;;;27.70;67.90;;;;;;5028653;28;20277;-51
2022/01/07 03:26:55;;;;;;;7.10;4.47;;;27.70;67.90;;;;;;5061803;28;20119;-46
2022/01/07 03:29:22;;;;;;;7.32;4.20;;;27.70;68.40;;;;;;5046160;28;20021;-47
2022/01/07 03:31:49;;;;;;;10.40;4.88;;;27.80;67.90;;;;;;5046356;28;20061;-48
2022/01/07 03:34:15;;;;;;;6.75;4.43;;;27.70;67.80;;;;;;5046493;28;20009;-51
2022/01/07 03:36:42;;;;;;;7.38;4.30;;;27.70;67.80;;;;;;5046529;28;20025;-49
2022/01/07 03:39:09;;;;;;;6.28;4.55;;;27.70;68.30;;;;;;5046086;28;20040;-47
2022/01/07 03:41:35;;;;;;;6.95;4.32;;;27.70;67.80;;;;;;5045948;28;20029;-49
2022/01/07 03:44:02;;;;;;;9.80;4.35;;;27.70;67.80;;;;;;5045995;28;20021;-50
2022/01/07 03:46:29;;;;;;;5.95;4.28;;;27.70;67.80;;;;;;5028348;28;20053;-46
2022/01/07 03:48:55;;;;;;;7.78;4.60;;;27.70;67.90;;;;;;5045616;28;20104;-49
2022/01/07 03:51:22;;;;;;;7.25;4.38;;;27.70;67.90;;;;;;5046124;28;20025;-58
2022/01/07 03:53:49;;;;;;;6.60;4.78;;;27.70;67.90;;;;;;5045713;28;20009;-45
2022/01/07 03:56:18;;;;;;;7.07;4.65;;;27.60;68.00;;;;;;5045891;28;20053;-49
2022/01/07 03:58:48;;;;;;;6.75;4.20;;;27.70;68.00;;;;;;5027947;28;20017;-49
2022/01/07 04:01:15;;;;;;;7.75;4.38;;;27.70;68.10;;;;;;5055464;28;20029;-44
2022/01/07 04:03:41;;;;;;;7.35;4.50;;;27.70;68.00;;;;;;5065365;28;20021;-47
2022/01/07 04:06:08;;;;;;;5.28;4.13;;;27.60;68.00;;;;;;5065714;28;20053;-45
2022/01/07 04:08:35;;;;;;;6.85;3.97;;;27.70;68.00;;;;;;5047535;28;20020;-44
2022/01/07 04:11:01;;;;;;;5.97;4.20;;;27.70;67.90;;;;;;5065355;28;20301;-44
2022/01/07 04:13:28;;;;;;;5.55;4.40;;;27.70;67.90;;;;;;5062841;28;20025;-52
2022/01/07 04:15:55;;;;;;;6.03;4.30;;;27.70;67.90;;;;;;5062228;28;20040;-50
2022/01/07 04:18:21;;;;;;;6.05;4.25;;;27.70;67.90;;;;;;5065023;28;20016;-48
2022/01/07 04:20:48;;;;;;;7.25;4.07;;;27.70;67.80;;;;;;5064819;28;20029;-48
2022/01/07 04:23:15;;;;;;;5.47;4.25;;;27.60;67.80;;;;;;5061790;28;20039;-48
2022/01/07 04:25:41;;;;;;;6.93;4.30;;;27.60;67.90;;;;;;5058886;28;20028;-52
2022/01/07 04:28:09;;;;;;;5.25;4.40;;;27.60;67.90;;;;;;5048458;28;20021;-45
2022/01/07 04:30:38;;;;;;;6.88;4.13;;;27.60;67.90;;;;;;5052911;28;20043;-45
2022/01/07 04:33:06;;;;;;;5.25;4.18;;;27.60;67.90;;;;;;5054628;28;20086;-50
2022/01/07 04:35:34;;;;;;;6.65;4.10;;;27.60;67.90;;;;;;5062920;28;20324;-49
2022/01/07 04:38:02;;;;;;;8.07;4.55;;;27.60;67.90;;;;;;5064828;28;20025;-44
2022/01/07 04:40:28;;;;;;;6.10;4.22;;;27.60;67.90;;;;;;5064622;28;20100;-46
2022/01/07 04:42:56;;;;;;;7.78;4.57;;;27.60;67.90;;;;;;5065003;28;20052;-54
2022/01/07 04:45:22;;;;;;;8.20;4.60;;;27.60;68.00;;;;;;5064656;28;20051;-50
2022/01/07 04:47:49;;;;;;;6.50;4.40;;;27.50;68.00;;;;;;5064493;28;20084;-46
2022/01/07 04:50:19;;;;;;;5.97;4.22;;;27.50;68.00;;;;;;5064651;28;20033;-46
2022/01/07 04:52:46;;;;;;;7.63;4.63;;;27.60;68.20;;;;;;5064526;28;20017;-46
2022/01/07 04:55:16;;;;;;;9.75;4.47;;;27.50;68.10;;;;;;5063168;28;20040;-49
2022/01/07 04:57:46;;;;;;;5.28;4.15;;;27.50;68.10;;;;;;5064374;28;20013;-45
2022/01/07 05:00:15;;;;;;;6.57;4.30;;;27.50;68.10;;;;;;5064337;28;20127;-53
2022/01/07 05:02:41;;;;;;;6.20;4.70;;;27.50;68.20;;;;;;5064233;28;20024;-49
2022/01/07 05:05:09;;;;;;;7.70;4.68;;;27.50;68.20;;;;;;5064443;28;20272;-46
2022/01/07 05:07:36;;;;;;;6.13;4.72;;;27.50;68.40;;;;;;5064323;28;20052;-49
2022/01/07 05:10:09;;;;;;;6.60;4.32;;;27.50;68.40;;;;;;5062942;28;20213;-44
2022/01/07 05:12:35;;;;;;;;;;;27.40;68.40;;;;;;5064684;28;20020;-50
2022/01/07 05:15:05;;;;;;;7.03;4.32;;;27.40;68.40;;;;;;5064055;28;19901;-46
2022/01/07 05:17:32;;;;;;;6.38;4.35;;;27.40;68.50;;;;;;5063998;28;20049;-57
2022/01/07 05:19:59;;;;;;;6.22;4.38;;;27.40;68.50;;;;;;5063995;28;20021;-52
2022/01/07 05:22:27;;;;;;;7.05;4.28;;;27.40;68.50;;;;;;5063786;28;20202;-49
2022/01/07 05:24:54;;;;;;;6.80;4.38;;;27.40;68.60;;;;;;5063842;28;20317;-46
2022/01/07 05:27:21;;;;;;;6.25;4.60;;;27.40;68.60;;;;;;5063913;28;20025;-47
2022/01/07 05:29:47;;;;;;;6.13;4.50;;;27.40;68.70;;;;;;5063688;28;20024;-45
2022/01/07 05:32:14;;;;;;;7.55;4.88;;;27.40;68.80;;;;;;5063314;28;20051;-46
2022/01/07 05:34:40;;;;;;;7.25;4.70;;;27.40;68.80;;;;;;5063849;28;20302;-48
2022/01/07 05:37:10;;;;;;;6.05;5.00;;;27.40;68.90;;;;;;5063709;28;20213;-52
2022/01/07 05:39:37;;;;;;;9.07;4.88;;;27.40;68.80;;;;;;5063420;28;20028;-44
2022/01/07 05:42:04;;;;;;;11.13;4.90;;;27.30;68.70;;;;;;5064251;28;20202;-47
2022/01/07 05:44:31;;;;;;;7.20;4.82;;;27.40;68.80;;;;;;5063725;28;20017;-50
2022/01/07 05:46:58;;;;;;;6.78;5.15;;;27.40;68.80;;;;;;5064214;28;20045;-50
2022/01/07 05:49:24;;;;;;;7.50;4.65;;;27.40;68.90;;;;;;5063623;28;20336;-51
2022/01/07 05:51:51;;;;;;;7.00;4.85;;;27.30;68.80;;;;;;5064089;28;20266;-47
2022/01/07 05:54:17;;;;;;;7.25;4.93;;;27.40;68.90;;;;;;5063811;28;20071;-51
2022/01/07 05:56:44;;;;;;;6.68;4.95;;;27.30;68.90;;;;;;5064070;28;20293;-44
2022/01/07 05:59:11;;;;;;;7.45;5.13;;;27.30;68.90;;;;;;5063725;28;20301;-47
2022/01/07 06:01:37;;;;;;;6.82;4.85;;;27.30;69.00;;;;;;5063967;28;20032;-47
2022/01/07 06:04:04;;;;;;;5.72;4.88;;;27.30;69.00;;;;;;5063620;28;20023;-50
2022/01/07 06:06:31;;;;;;;7.40;4.93;;;27.30;69.00;;;;;;5063976;28;20021;-44
2022/01/07 06:08:57;;;;;;;8.68;4.60;;;27.30;69.00;;;;;;5063410;28;20086;-44
2022/01/07 06:11:24;;;;;;;6.25;4.88;;;27.30;69.10;;;;;;5063962;28;20021;-50
2022/01/07 06:13:50;;;;;;;7.80;4.85;;;27.30;69.10;;;;;;5063526;28;20021;-49
2022/01/07 06:16:17;;;;;;;6.07;4.50;;;27.30;69.10;;;;;;5063551;28;20205;-54
2022/01/07 06:18:51;;;;;;;6.72;4.88;;;27.30;69.10;;;;;;5063658;28;20025;-51
2022/01/07 06:21:19;;;;;;;6.82;4.28;;;27.30;69.20;;;;;;5063802;28;20032;-49
2022/01/07 06:23:46;;;;;;;8.02;4.82;;;27.20;69.40;;;;;;5063376;28;20086;-46
2022/01/07 06:26:12;;;;;;;6.10;4.50;;;27.10;69.60;;;;;;5063626;28;20024;-56
2022/01/07 06:28:39;;;;;;;7.20;4.63;;;27.10;69.80;;;;;;5063334;28;20021;-46
2022/01/07 06:31:05;;;;;;;7.70;4.43;;;27.10;69.80;;;;;;5063103;28;20097;-44
2022/01/07 06:33:32;;;;;;;7.15;4.70;;;27.10;69.70;;;;;;5063196;28;20049;-50
2022/01/07 06:35:59;;;;;;;6.35;4.55;;;27.20;69.70;;;;;;5063478;28;20025;-45
2022/01/07 06:38:25;;;;;;;6.65;4.85;;;27.10;69.80;;;;;;5063188;28;20309;-52
2022/01/07 06:40:52;;;;;;;6.03;4.82;;;27.10;69.90;;;;;;5063539;28;20305;-52
2022/01/07 06:43:21;;;;;;;9.27;4.95;;;27.00;70.00;;;;;;5065536;28;20048;-44
2022/01/07 06:45:47;;;;;;;5.72;4.78;;;27.10;70.00;;;;;;5066989;28;20096;-45
2022/01/07 06:48:14;;;;;;;9.07;5.38;;;27.10;70.00;;;;;;5067075;28;20029;-47
2022/01/07 06:50:41;;;;;;;8.25;5.35;;;27.10;70.00;;;;;;5066967;28;20029;-54
2022/01/07 06:53:09;;;;;;;8.95;5.97;;;27.10;70.00;;;;;;5066726;28;20058;-49
2022/01/07 06:55:35;;;;;;;8.45;5.78;;;27.10;70.10;;;;;;5066821;28;20025;-46
2022/01/07 06:58:02;;;;;;;9.25;5.80;;;27.10;70.20;;;;;;5066720;28;20048;-47
2022/01/07 07:00:29;;;;;;;8.63;5.75;;;27.10;70.20;;;;;;5066630;28;20027;-49
2022/01/07 07:02:55;;;;;;;11.50;6.07;;;27.10;70.30;;;;;;5066617;28;20029;-50
2022/01/07 07:05:24;;;;;;;7.88;6.10;;;27.10;70.40;;;;;;5066705;28;20070;-46
2022/01/07 07:07:51;;;;;;;9.38;6.25;;;27.10;70.40;;;;;;5066333;28;20029;-48
2022/01/07 07:10:18;;;;;;;11.90;6.85;;;27.10;70.60;;;;;;5066434;28;20017;-49
2022/01/07 07:12:44;;;;;;;7.13;6.07;;;27.00;70.60;;;;;;5065605;28;20055;-47
2022/01/07 07:15:11;;;;;;;7.82;5.93;;;27.00;70.80;;;;;;5066123;28;20040;-47
2022/01/07 07:17:37;;;;;;;6.90;6.05;;;26.90;71.00;;;;;;5066216;28;20017;-46
2022/01/07 07:20:04;;;;;;;9.68;5.97;;;26.90;71.10;;;;;;5066229;28;20016;-45
2022/01/07 07:22:31;;;;;;;8.02;5.88;;;26.90;71.10;;;;;;5066116;28;20017;-46
2022/01/07 07:24:58;;;;;;;9.88;6.25;;;26.90;71.00;;;;;;5066120;28;20084;-48
2022/01/07 07:27:24;;;;;;;8.23;5.75;;;26.90;71.00;;;;;;5066179;28;20352;-47
2022/01/07 07:29:51;;;;;;;8.73;5.80;;;26.90;71.00;;;;;;5065828;28;20092;-45
2022/01/07 07:32:23;;;;;;;7.82;5.93;;;26.90;71.00;;;;;;5064683;28;20356;-48
2022/01/07 07:37:46;;;;;;;7.05;5.80;;;26.90;71.00;;;;;;5029534;28;20036;-47
2022/01/07 07:40:13;;;;;;;8.85;5.65;;;26.90;71.10;;;;;;5065912;28;20016;-47
2022/01/07 07:42:39;;;;;;;8.35;5.70;;;26.80;71.20;;;;;;5065660;28;20033;-52
2022/01/07 07:45:07;;;;;;;8.80;5.45;;;26.60;71.40;;;;;;5062772;28;20063;-48
2022/01/07 07:47:35;;;;;;;9.98;5.70;;;26.60;71.80;;;;;;5045854;28;20245;-53
2022/01/07 07:50:03;;;;;;;11.50;5.25;;;26.50;71.90;;;;;;5045521;28;20085;-50
2022/01/07 07:52:30;;;;;;;7.78;5.32;;;26.60;71.80;;;;;;5045670;28;20298;-49
2022/01/07 07:54:57;;;;;;;8.73;5.50;;;26.70;71.70;;;;;;5044921;28;20054;-51
2022/01/07 07:57:23;;;;;;;8.02;5.40;;;26.70;71.50;;;;;;5045493;28;20021;-51
2022/01/07 07:59:50;;;;;;;10.30;5.75;;;26.70;71.50;;;;;;5045716;28;20124;-49
2022/01/07 08:02:16;;;;;;;8.70;5.05;;;26.70;71.50;;;;;;5045511;28;20034;-51
2022/01/07 08:04:43;;;;;;;9.48;5.60;;;26.70;71.50;;;;;;5059713;28;20238;-54
2022/01/07 08:07:16;;;;;;;8.25;5.18;;;26.70;71.40;;;;;;5065924;28;20059;-51
2022/01/07 08:09:43;;;;;;;9.18;5.28;;;26.70;71.40;;;;;;5065268;28;20021;-45
2022/01/07 08:17:48;;;;;;;9.68;5.22;;;26.70;71.60;;;;;;5065159;28;20032;-47
2022/01/07 08:20:15;;;;;;;7.20;5.20;;;26.70;71.50;;;;;;5065182;28;20049;-49
2022/01/07 08:22:41;;;;;;;8.13;5.60;;;26.70;71.50;;;;;;5065381;28;20033;-46
2022/01/07 08:25:08;;;;;;;10.35;5.70;;;26.70;71.40;;;;;;5065075;28;20013;-49
2022/01/07 08:27:35;;;;;;;6.18;5.50;;;26.60;71.20;;;;;;5065007;28;20025;-50
2022/01/07 08:30:21;;;;;;;8.13;5.57;;;26.60;71.20;;;;;;5064790;28;20028;-45
2022/01/07 08:35:38;;;;;;;6.53;5.35;;;26.30;72.00;;;;;;5065104;28;20067;-48
2022/01/07 08:38:05;;;;;;;7.70;5.28;;;26.20;72.30;;;;;;5045110;28;20025;-54
2022/01/07 08:40:33;;;;;;;8.55;5.25;;;26.20;72.90;;;;;;5044773;28;20029;-49
2022/01/07 08:42:59;;;;;;;9.50;4.90;;;26.20;72.50;;;;;;5044741;28;20254;-49
2022/01/07 08:45:26;;;;;;;8.82;5.50;;;26.30;72.30;;;;;;5044801;28;20029;-48
2022/01/07 08:47:52;;;;;;;9.07;5.20;;;26.30;72.10;;;;;;5044514;28;20021;-46
2022/01/07 08:50:19;;;;;;;6.60;5.47;;;26.30;72.10;;;;;;5044811;28;20025;-46
2022/01/07 08:52:46;;;;;;;9.48;5.50;;;26.30;72.00;;;;;;5044611;28;20101;-50
2022/01/07 08:55:13;;;;;;;6.97;5.20;;;26.30;72.10;;;;;;5044435;28;20056;-50
2022/01/07 08:57:39;;;;;;;9.20;5.70;;;26.30;72.10;;;;;;5044491;28;20017;-46
2022/01/07 09:00:07;;;;;;;7.07;5.10;;;26.30;72.00;;;;;;5044374;28;20024;-50
2022/01/07 09:02:34;;;;;;;11.38;5.90;;;26.30;71.70;;;;;;5044213;28;20224;-45
2022/01/07 09:05:00;;;;;;;8.15;5.63;;;26.30;71.40;;;;;;5044374;28;20048;-50
2022/01/07 09:07:27;;;;;;;7.55;5.38;;;26.30;71.20;;;;;;5044460;28;20021;-50
2022/01/07 09:09:53;;;;;;;7.07;5.70;;;26.30;71.00;;;;;;5044005;28;20025;-48
2022/01/07 09:12:20;;;;;;;14.35;5.75;;;26.40;70.90;;;;;;5044115;28;20085;-53
2022/01/07 09:14:47;;;;;;;8.48;5.45;;;26.40;70.60;;;;;;5044201;28;20352;-53
2022/01/07 09:17:14;;;;;;;9.50;5.57;;;26.40;70.50;;;;;;5044305;28;20025;-47
2022/01/07 09:19:40;;;;;;;8.50;5.68;;;26.40;70.30;;;;;;5043995;28;20204;-46
2022/01/07 09:22:07;;;;;;;11.80;5.65;;;26.30;70.30;;;;;;5044614;28;20092;-45
2022/01/07 09:24:33;;;;;;;7.88;5.93;;;26.30;70.30;;;;;;5044043;28;20025;-53
2022/01/07 09:27:00;;;;;;;10.88;5.85;;;26.30;70.20;;;;;;5044387;28;20036;-45
2022/01/07 09:29:27;;;;;;;8.77;5.85;;;26.30;70.30;;;;;;5043933;28;20021;-48
2022/01/07 09:31:55;;;;;;;8.25;5.38;;;26.30;70.30;;;;;;5043887;28;20037;-49
2022/01/07 09:34:21;;;;;;;10.27;5.80;;;26.30;70.20;;;;;;5043840;28;20028;-45
2022/01/07 09:36:48;;;;;;;8.38;6.00;;;26.20;70.50;;;;;;5044212;28;20025;-49
2022/01/07 09:39:15;;;;;;;12.07;5.78;;;26.20;70.60;;;;;;5043770;28;20305;-54
2022/01/07 09:41:41;;;;;;;9.07;5.72;;;26.20;70.80;;;;;;5044230;28;20030;-50
2022/01/07 09:44:11;;;;;;;8.27;5.75;;;26.20;70.60;;;;;;5043890;28;20018;-46
2022/01/07 09:46:39;;;;;;;7.43;5.85;;;26.30;70.60;;;;;;5043314;28;20025;-54
2022/01/07 09:49:06;;;;;;;7.90;5.43;;;26.30;70.50;;;;;;5043752;28;20017;-51
2022/01/07 09:51:36;;;;;;;7.07;5.50;;;26.30;70.50;;;;;;5044161;28;20025;-46
2022/01/07 09:54:04;;;;;;;8.32;6.07;;;26.30;70.70;;;;;;5058616;28;20047;-45
2022/01/07 09:56:30;;;;;;;11.65;6.65;;;26.30;70.80;;;;;;5064003;28;20027;-48
2022/01/07 09:58:57;;;;;;;8.52;6.47;;;26.30;70.90;;;;;;5063737;28;20066;-47
2022/01/07 10:01:25;;;;;;;12.20;6.80;;;26.30;70.90;;;;;;5063818;28;20179;-50
2022/01/07 10:03:52;;;;;;;20.17;7.53;;;26.30;71.00;;;;;;5063514;28;20032;-53
2022/01/07 10:06:21;;;;;;;13.07;6.40;;;26.30;71.00;;;;;;5063753;28;20025;-47
2022/01/07 10:09:07;;;;;;;34.03;7.07;;;26.30;71.10;;;;;;5063229;28;20029;-46
2022/01/07 10:11:34;;;;;;;15.00;7.00;;;26.30;71.10;;;;;;5063724;28;20313;-48
2022/01/07 10:14:22;;;;;;;10.48;6.68;;;26.30;71.00;;;;;;5063419;28;20025;-54
2022/01/07 10:16:57;;;;;;;10.95;6.07;;;26.40;71.20;;;;;;5063743;28;20032;-46
2022/01/07 10:19:31;;;;;;;17.88;6.80;;;26.40;71.20;;;;;;5067336;28;20047;-45
2022/01/07 10:22:00;;;;;;;10.40;6.35;;;26.40;71.30;;;;;;5068441;28;20084;-55
2022/01/07 10:24:26;;;;;;;13.15;6.65;;;26.40;71.40;;;;;;5067709;28;20092;-47
2022/01/07 10:27:10;;;;;;;14.70;6.32;;;26.40;71.40;;;;;;5068676;28;20078;-48
2022/01/07 10:29:45;;;;;;;10.00;6.03;;;26.40;71.40;;;;;;5067284;28;20020;-49
2022/01/07 10:32:29;;;;;;;12.07;6.55;;;26.40;71.50;;;;;;5066995;28;20064;-44
2022/01/07 10:35:09;;;;;;;10.90;6.07;;;26.40;71.50;;;;;;5067031;28;20058;-50
2022/01/07 10:37:45;;;;;;;10.55;5.95;;;26.40;71.60;;;;;;5067236;28;20017;-51
2022/01/07 10:40:35;;;;;;;9.93;5.90;;;26.40;71.60;;;;;;5066992;28;20213;-47
2022/01/07 10:43:20;;;;;;;12.00;6.05;;;26.30;71.70;;;;;;5066937;28;20025;-51
2022/01/07 10:45:54;;;;;;;11.20;6.47;;;26.30;71.70;;;;;;5066789;28;20297;-45
2022/01/07 10:48:24;;;;;;;11.68;5.60;;;26.30;71.70;;;;;;5066821;28;20024;-54
2022/01/07 10:50:52;;;;;;;11.35;5.82;;;26.30;71.70;;;;;;5066605;28;20075;-45
2022/01/07 10:53:28;;;;;;;13.18;5.97;;;26.30;71.70;;;;;;5066737;28;20024;-51
2022/01/07 10:56:05;;;;;;;9.85;6.45;;;26.30;71.80;;;;;;5066855;28;20233;-45
2022/01/07 10:58:50;;;;;;;12.63;5.88;;;26.30;71.70;;;;;;5066528;28;20058;-46
2022/01/07 11:01:20;;;;;;;12.10;5.90;;;26.30;71.80;;;;;;5066913;28;20056;-49
2022/01/07 11:03:51;;;;;;;12.05;5.53;;;26.30;71.90;;;;;;5066763;28;20017;-51
2022/01/07 11:06:18;;;;;;;14.38;6.00;;;26.30;72.40;;;;;;5066793;28;20088;-43
2022/01/07 11:08:48;;;;;;;12.05;6.47;;;26.30;71.90;;;;;;5048612;28;20021;-45
2022/01/07 11:11:15;;;;;;;14.25;5.85;;;26.30;71.90;;;;;;5066633;28;20029;-49
2022/01/07 11:13:42;;;;;;;11.82;6.00;;;26.30;72.00;;;;;;5066429;28;20244;-44
2022/01/07 11:16:09;;;;;;;13.95;5.82;;;26.30;72.00;;;;;;5066375;28;20028;-46
2022/01/07 11:18:41;;;;;;;13.35;6.10;;;26.30;72.00;;;;;;5066349;28;20210;-46
2022/01/07 11:21:09;;;;;;;12.82;6.47;;;26.30;72.00;;;;;;5048460;28;20368;-45
2022/01/07 11:23:41;;;;;;;14.20;6.70;;;26.30;72.00;;;;;;5065980;28;20318;-44
2022/01/07 11:26:10;;;;;;;19.27;5.75;;;26.30;72.10;;;;;;5066287;28;20266;-48
2022/01/07 11:28:38;;;;;;;25.60;6.32;;;26.30;72.10;;;;;;5064928;28;20313;-50
2022/01/07 11:31:10;;;;;;;12.77;5.82;;;26.30;72.20;;;;;;5065855;28;20025;-43
2022/01/07 11:33:37;;;;;;;13.07;6.07;;;26.30;72.30;;;;;;5065973;28;20067;-47
2022/01/07 11:36:04;;;;;;;13.13;5.65;;;26.30;72.30;;;;;;5066044;28;20205;-51
2022/01/07 11:38:46;;;;;;;11.00;6.18;;;26.30;72.30;;;;;;5065789;28;20021;-45
2022/01/07 11:41:50;;;;;;;16.42;6.07;;;26.30;72.30;;;;;;5066222;28;20084;-48
2022/01/07 11:44:26;;;;;;;10.90;6.18;;;26.30;72.20;;;;;;5065878;28;20028;-44
2022/01/07 11:47:13;;;;;;;13.32;6.40;;;26.30;72.30;;;;;;5065875;28;20203;-47
2022/01/07 11:49:40;;;;;;;14.38;6.75;;;26.30;72.20;;;;;;5013568;28;20037;-43
2022/01/07 11:52:37;;;;;;;15.32;6.57;;;26.30;72.20;;;;;;5064404;28;20029;-43
2022/01/07 11:55:22;;;;;;;42.70;8.25;;;26.40;72.30;;;;;;5063719;28;20194;-46
2022/01/07 11:57:54;;;;;;;38.42;7.95;;;26.40;72.30;;;;;;5064096;28;20353;-49
2022/01/07 12:00:54;;;;;;;31.13;7.68;;;26.40;72.30;;;;;;5063778;28;20298;-45
2022/01/07 12:03:39;;;;;;;31.42;7.57;;;26.40;72.40;;;;;;5064865;28;20224;-50
2022/01/07 12:06:27;;;;;;;30.10;8.35;;;26.40;72.50;;;;;;5065889;28;20025;-47
2022/01/07 12:08:57;;;;;;;26.58;7.47;;;26.40;72.50;;;;;;5065253;28;20310;-49
2022/01/07 12:11:37;;;;;;;26.15;7.80;;;26.50;72.70;;;;;;5065740;28;20044;-44
2022/01/07 12:14:27;;;;;;;27.02;7.38;;;26.40;72.70;;;;;;5065040;28;20318;-55
2022/01/07 12:16:56;;;;;;;29.75;8.60;;;26.50;72.80;;;;;;5064783;28;20035;-49
2022/01/07 12:19:38;;;;;;;28.83;10.10;;;26.40;72.80;;;;;;5065060;28;20080;-49
2022/01/07 12:22:11;;;;;;;27.50;10.30;;;26.50;72.90;;;;;;5065712;28;20021;-53
2022/01/07 12:24:38;;;;;;;30.10;10.27;;;26.50;72.90;;;;;;5064963;28;20016;-45
2022/01/07 12:27:24;;;;;;;28.10;9.68;;;26.50;73.00;;;;;;5065548;28;20068;-49
2022/01/07 12:29:53;;;;;;;29.15;10.27;;;26.60;73.10;;;;;;5064778;28;20020;-47
2022/01/07 12:32:20;;;;;;;23.50;9.25;;;26.60;73.10;;;;;;5065076;28;20040;-52
2022/01/07 12:34:50;;;;;;;29.38;9.10;;;26.60;73.20;;;;;;5047404;28;20028;-46
2022/01/07 12:37:22;;;;;;;25.02;8.77;;;26.60;73.30;;;;;;5064719;28;20024;-50
2022/01/07 12:40:00;;;;;;;26.90;8.07;;;26.60;73.60;;;;;;5046828;28;20286;-44
2022/01/07 12:42:29;;;;;;;20.58;7.82;;;26.70;73.80;;;;;;5064599;28;20078;-46
2022/01/07 12:45:00;;;;;;;20.60;8.50;;;26.60;73.90;;;;;;5064587;28;20017;-45
2022/01/07 12:47:31;;;;;;;21.23;8.02;;;26.70;74.00;;;;;;5064674;28;20041;-45
2022/01/07 12:50:00;;;;;;;23.55;7.70;;;26.70;74.10;;;;;;5064320;28;20025;-46
2022/01/07 12:52:29;;;;;;;18.65;7.38;;;26.70;74.20;;;;;;5064516;28;20055;-44
2022/01/07 12:55:22;;;;;;;20.83;7.28;;;26.70;74.30;;;;;;5064501;28;20020;-49
2022/01/07 12:57:48;;;;;;;14.63;7.22;;;26.70;74.50;;;;;;5064485;28;20017;-48
2022/01/07 13:00:23;;;;;;;22.90;7.35;;;26.70;74.60;;;;;;5064251;28;20021;-49
2022/01/07 13:02:55;;;;;;;18.38;7.25;;;26.70;74.70;;;;;;5064523;28;20021;-44